Detall de PIREP

Printer-friendly versionPDF version

[2012/05/04 20:04:00]
Flight IATA:CT1005
Pilot Number:037
Company ICAO:CAT
Aircraft Type:B752/E
PAX:162
Departing Airport: LCLK
Destination Airport: LMML
Alternate Airport:HLLT
Online: VATSIM
Route:PHA DCT GENOS DCT TOSKA UM978 GZO
Flight Level:F360
No Slew and time accel
No pause
Crash detect
Detect pilot in Cockpit between each 30 and 45 minutes
20:04 Zero fuel Weight: 180300 Lbs, Fuel Weight: 35901 Lbs
20:04 VATSIM:LCLK 041930Z 02006KT CAVOK 19/15 Q1010 NOSIG
20:04 VATSIM:LMML 041915Z 33004KT 290V030 CAVOK 19/10 Q1014 NOSIG
20:09 Parking Brakes off
20:32 Take-off
20:32 Take off Weight: 214396 Lbs
20:32 Wind: 352º @ 003 Knots Heading: 226º
20:32 POS N34º 52´ 19´´ E033º 37´ 16´´
20:32 Gear Up: 191 Knots
20:32 Flaps:2 at 191 Knots
20:32 Flaps:1 at 196 Knots
20:34 Flaps:0 at 201 Knots
20:47 Wind:019º@016 Knots Heading: 268º Ground Speed: 426 Knots Altitude 23937ft
21:02 Wind:326º@006 Knots Heading: 280º Ground Speed: 468 Knots Altitude 31899 ft
21:17 Wind:296º@026 Knots Heading: 272º Ground Speed: 451 Knots Altitude 31850 ft
21:32 Wind:171º@035 Knots Heading: 270º Ground Speed: 469 Knots Altitude 35114 ft
21:32 TOC
21:32 Fuel Weight: 23505 Lb
21:47 Wind:260º@032 Knots Heading: 277º Ground Speed: 445 Knots Altitude 35869 ft
22:02 Wind:305º@010 Knots Heading: 277º Ground Speed: 467 Knots Altitude 35892 ft
22:17 Wind:322º@011 Knots Heading: 276º Ground Speed: 467 Knots Altitude 35941 ft
22:28 TOD
22:28 Fuel Weight: 15503 Lb
22:32 Wind:300º@016 Knots Heading: 275º Ground Speed: 432 Knots Altitude 27260 ft
22:45 Flaps:1 at 213 Knots
22:45 Flaps:2 at 200 Knots
22:46 Flaps:3 at 170 Knots
22:47 Wind:319º@003 Knots Heading: 315º Ground Speed: 174 Knots Altitude 2933 ft
22:48 Flaps:4 at 155 Knots
22:48 Gear Down: 151 Knots
22:49 Flaps:5 at 146 Knots
22:49 Flaps:6 at 145 Knots
22:50 TouchDown:Rate -274 ft/min Speed: 129 Knots
22:50 VATSIM:LMML 042215Z 32003KT CAVOK 18/12 Q1014 NOSIG
22:50 Land
22:50 Wind:319º@003 Knots
22:50 Heading: 312º
22:50 Flight Duration: 02:18
22:50 Landing Weight: 194299 Lbs
22:50 POS N35º 50´ 50´´ E014º 29´ 30´´
22:55 Parking brakes on
22:55 Block to Block Duration: 02:46
22:55 Final Fuel: 13423 Lbls
22:55 Spent Fuel: 22477 Lbls
22:55 Flight Length: 766 NM
22:55 TOD Land Length: 112 NM

Exportar CSV

Powered by Drupal - Modified by Danger4k